sensor_id;sensor_type;location;lat;lon;timestamp;P1;durP1;ratioP1;P2;durP2;ratioP2
63906;SDS011;50075;49.484;11.238;2023-05-23T18:11:33;29.33;;;5.80;;
63906;SDS011;50075;49.484;11.238;2023-05-23T18:13:58;22.17;;;4.93;;
63906;SDS011;50075;49.484;11.238;2023-05-23T18:16:24;29.50;;;5.67;;
63906;SDS011;50075;49.484;11.238;2023-05-23T18:18:49;21.43;;;4.70;;
63906;SDS011;50075;49.484;11.238;2023-05-23T18:21:15;19.05;;;4.53;;
63906;SDS011;50075;49.484;11.238;2023-05-23T18:23:40;18.40;;;4.27;;
63906;SDS011;50075;49.484;11.238;2023-05-23T18:26:06;20.83;;;4.03;;
63906;SDS011;50075;49.484;11.238;2023-05-23T18:28:31;30.40;;;5.97;;
63906;SDS011;50075;49.484;11.238;2023-05-23T18:30:56;20.33;;;4.50;;
63906;SDS011;50075;49.484;11.238;2023-05-23T18:33:21;22.65;;;4.80;;
63906;SDS011;50075;49.484;11.238;2023-05-23T18:35:48;19.77;;;4.25;;
63906;SDS011;50075;49.484;11.238;2023-05-23T18:38:13;17.85;;;4.13;;
63906;SDS011;50075;49.484;11.238;2023-05-23T18:40:39;28.85;;;5.80;;
63906;SDS011;50075;49.484;11.238;2023-05-23T18:43:04;15.25;;;4.18;;
63906;SDS011;50075;49.484;11.238;2023-05-23T18:45:29;29.48;;;5.47;;
63906;SDS011;50075;49.484;11.238;2023-05-23T18:47:55;18.10;;;4.00;;
63906;SDS011;50075;49.484;11.238;2023-05-23T18:50:20;15.80;;;3.83;;
63906;SDS011;50075;49.484;11.238;2023-05-23T18:52:45;24.87;;;4.40;;
63906;SDS011;50075;49.484;11.238;2023-05-23T18:55:10;26.35;;;5.32;;
63906;SDS011;50075;49.484;11.238;2023-05-23T18:57:36;32.08;;;6.15;;
63906;SDS011;50075;49.484;11.238;2023-05-23T19:00:02;27.27;;;5.22;;
63906;SDS011;50075;49.484;11.238;2023-05-23T19:02:27;33.92;;;6.20;;
63906;SDS011;50075;49.484;11.238;2023-05-23T19:04:53;19.48;;;4.07;;
63906;SDS011;50075;49.484;11.238;2023-05-23T19:07:18;28.10;;;5.40;;
63906;SDS011;50075;49.484;11.238;2023-05-23T19:09:43;20.80;;;4.40;;
63906;SDS011;50075;49.484;11.238;2023-05-23T19:12:10;20.63;;;4.53;;
63906;SDS011;50075;49.484;11.238;2023-05-23T19:14:35;26.80;;;5.63;;
63906;SDS011;50075;49.484;11.238;2023-05-23T19:17:01;19.30;;;4.38;;
63906;SDS011;50075;49.484;11.238;2023-05-23T19:19:29;32.55;;;6.00;;
63906;SDS011;50075;49.484;11.238;2023-05-23T19:21:55;17.60;;;4.55;;
63906;SDS011;50075;49.484;11.238;2023-05-23T19:24:20;21.17;;;4.78;;
63906;SDS011;50075;49.484;11.238;2023-05-23T19:26:45;17.67;;;3.63;;
63906;SDS011;50075;49.484;11.238;2023-05-23T19:29:10;22.07;;;4.87;;
63906;SDS011;50075;49.484;11.238;2023-05-23T19:31:36;33.03;;;6.10;;
63906;SDS011;50075;49.484;11.238;2023-05-23T19:34:02;23.52;;;4.80;;
63906;SDS011;50075;49.484;11.238;2023-05-23T19:36:27;23.02;;;4.95;;
63906;SDS011;50075;49.484;11.238;2023-05-23T19:38:52;19.83;;;4.27;;
63906;SDS011;50075;49.484;11.238;2023-05-23T19:41:17;19.23;;;4.33;;
63906;SDS011;50075;49.484;11.238;2023-05-23T19:43:43;30.07;;;6.27;;
63906;SDS011;50075;49.484;11.238;2023-05-23T19:46:08;21.53;;;4.70;;
63906;SDS011;50075;49.484;11.238;2023-05-23T19:48:33;28.70;;;5.93;;
63906;SDS011;50075;49.484;11.238;2023-05-23T19:50:58;25.23;;;5.50;;
63906;SDS011;50075;49.484;11.238;2023-05-23T19:53:24;19.40;;;4.80;;
63906;SDS011;50075;49.484;11.238;2023-05-23T19:55:49;19.17;;;4.47;;
63906;SDS011;50075;49.484;11.238;2023-05-23T19:58:15;20.27;;;4.72;;
63906;SDS011;50075;49.484;11.238;2023-05-23T20:00:40;32.10;;;6.37;;
63906;SDS011;50075;49.484;11.238;2023-05-23T20:03:05;19.35;;;4.10;;
63906;SDS011;50075;49.484;11.238;2023-05-23T20:05:30;36.27;;;6.57;;
63906;SDS011;50075;49.484;11.238;2023-05-23T20:07:56;30.48;;;5.95;;
63906;SDS011;50075;49.484;11.238;2023-05-23T20:10:21;28.53;;;6.10;;
63906;SDS011;50075;49.484;11.238;2023-05-23T20:12:46;23.97;;;5.03;;
63906;SDS011;50075;49.484;11.238;2023-05-23T20:15:12;21.15;;;4.95;;
63906;SDS011;50075;49.484;11.238;2023-05-23T20:17:37;42.55;;;7.20;;
63906;SDS011;50075;49.484;11.238;2023-05-23T20:20:02;24.30;;;5.00;;
63906;SDS011;50075;49.484;11.238;2023-05-23T20:22:28;26.80;;;5.85;;
63906;SDS011;50075;49.484;11.238;2023-05-23T20:24:53;32.33;;;6.00;;
63906;SDS011;50075;49.484;11.238;2023-05-23T20:27:19;23.48;;;5.00;;
63906;SDS011;50075;49.484;11.238;2023-05-23T20:29:44;124.20;;;11.27;;
63906;SDS011;50075;49.484;11.238;2023-05-23T20:32:09;97.40;;;8.45;;
63906;SDS011;50075;49.484;11.238;2023-05-23T20:34:35;127.03;;;10.45;;
63906;SDS011;50075;49.484;11.238;2023-05-23T20:37:00;102.28;;;8.73;;
63906;SDS011;50075;49.484;11.238;2023-05-23T20:39:26;87.97;;;8.32;;
63906;SDS011;50075;49.484;11.238;2023-05-23T20:41:51;80.55;;;7.68;;
63906;SDS011;50075;49.484;11.238;2023-05-23T20:44:17;87.25;;;9.18;;
63906;SDS011;50075;49.484;11.238;2023-05-23T20:46:43;128.18;;;10.88;;
63906;SDS011;50075;49.484;11.238;2023-05-23T20:49:08;98.63;;;8.57;;
63906;SDS011;50075;49.484;11.238;2023-05-23T20:51:34;131.57;;;11.20;;
63906;SDS011;50075;49.484;11.238;2023-05-23T20:54:01;92.10;;;7.85;;
63906;SDS011;50075;49.484;11.238;2023-05-23T20:56:27;94.45;;;7.88;;
63906;SDS011;50075;49.484;11.238;2023-05-23T20:58:52;83.70;;;7.55;;
63906;SDS011;50075;49.484;11.238;2023-05-23T21:01:17;81.70;;;7.45;;
63906;SDS011;50075;49.484;11.238;2023-05-23T21:03:46;128.48;;;10.40;;
63906;SDS011;50075;49.484;11.238;2023-05-23T21:06:11;85.55;;;7.57;;
63906;SDS011;50075;49.484;11.238;2023-05-23T21:08:37;158.50;;;12.20;;
63906;SDS011;50075;49.484;11.238;2023-05-23T21:11:02;98.27;;;8.63;;
63906;SDS011;50075;49.484;11.238;2023-05-23T21:13:27;68.03;;;6.73;;
63906;SDS011;50075;49.484;11.238;2023-05-23T21:15:52;93.23;;;7.87;;
63906;SDS011;50075;49.484;11.238;2023-05-23T21:18:18;88.90;;;7.87;;
63906;SDS011;50075;49.484;11.238;2023-05-23T21:20:43;117.70;;;10.95;;
63906;SDS011;50075;49.484;11.238;2023-05-23T21:23:08;90.68;;;7.63;;
63906;SDS011;50075;49.484;11.238;2023-05-23T21:25:33;120.25;;;10.10;;
63906;SDS011;50075;49.484;11.238;2023-05-23T21:27:59;98.40;;;8.25;;
63906;SDS011;50075;49.484;11.238;2023-05-23T21:30:24;88.13;;;8.07;;
63906;SDS011;50075;49.484;11.238;2023-05-23T21:32:49;113.72;;;9.95;;
63906;SDS011;50075;49.484;11.238;2023-05-23T21:35:16;105.78;;;8.93;;
63906;SDS011;50075;49.484;11.238;2023-05-23T21:37:41;123.38;;;9.98;;
63906;SDS011;50075;49.484;11.238;2023-05-23T21:40:06;92.07;;;8.10;;
63906;SDS011;50075;49.484;11.238;2023-05-23T21:42:32;83.60;;;7.28;;
63906;SDS011;50075;49.484;11.238;2023-05-23T21:44:57;66.55;;;6.35;;
